sensor_id;sensor_type;location;lat;lon;timestamp;pressure;altitude;pressure_sealevel;temperature;humidity
62697;BME280;48761;42.680;23.312;2023-04-28T00:02:00;95043.09;;;9.66;43.89
62697;BME280;48761;42.680;23.312;2023-04-28T00:04:27;95040.13;;;9.71;43.84
62697;BME280;48761;42.680;23.312;2023-04-28T00:06:53;95053.72;;;9.66;44.22
62697;BME280;48761;42.680;23.312;2023-04-28T00:09:19;95040.16;;;9.56;44.13
62697;BME280;48761;42.680;23.312;2023-04-28T00:11:45;95042.81;;;9.56;44.18
62697;BME280;48761;42.680;23.312;2023-04-28T00:14:11;95001.66;;;9.21;44.29
62697;BME280;48761;42.680;23.312;2023-04-28T00:16:38;95052.41;;;9.59;44.07
62697;BME280;48761;42.680;23.312;2023-04-28T00:19:04;95054.31;;;9.57;44.23
62697;BME280;48761;42.680;23.312;2023-04-28T00:21:30;95052.81;;;9.52;44.03
62697;BME280;48761;42.680;23.312;2023-04-28T00:23:55;95050.03;;;9.54;43.95
62697;BME280;48761;42.680;23.312;2023-04-28T00:26:21;95027.22;;;9.37;44.65
62697;BME280;48761;42.680;23.312;2023-04-28T00:28:47;95032.91;;;9.30;44.23
62697;BME280;48761;42.680;23.312;2023-04-28T00:31:13;95024.75;;;9.19;44.51
62697;BME280;48761;42.680;23.312;2023-04-28T00:33:40;95056.19;;;9.25;44.80
62697;BME280;48761;42.680;23.312;2023-04-28T00:36:07;95037.28;;;9.17;45.01
62697;BME280;48761;42.680;23.312;2023-04-28T00:38:33;95051.28;;;9.19;44.84
62697;BME280;48761;42.680;23.312;2023-04-28T00:40:59;95060.38;;;9.15;44.98
62697;BME280;48761;42.680;23.312;2023-04-28T00:43:27;95065.31;;;9.21;44.87
62697;BME280;48761;42.680;23.312;2023-04-28T00:45:53;95061.72;;;9.22;44.85
62697;BME280;48761;42.680;23.312;2023-04-28T00:48:20;95037.47;;;8.99;45.34
62697;BME280;48761;42.680;23.312;2023-04-28T00:50:46;95064.56;;;9.04;45.50
62697;BME280;48761;42.680;23.312;2023-04-28T00:53:13;95068.88;;;8.91;45.49
62697;BME280;48761;42.680;23.312;2023-04-28T00:55:39;95045.41;;;8.99;45.07
62697;BME280;48761;42.680;23.312;2023-04-28T00:58:06;95053.94;;;9.04;45.20
62697;BME280;48761;42.680;23.312;2023-04-28T01:00:32;95050.59;;;9.01;45.24
62697;BME280;48761;42.680;23.312;2023-04-28T01:02:58;95063.22;;;8.97;45.51
62697;BME280;48761;42.680;23.312;2023-04-28T01:05:25;95052.41;;;9.00;45.07
62697;BME280;48761;42.680;23.312;2023-04-28T01:07:51;95070.78;;;9.18;45.14
62697;BME280;48761;42.680;23.312;2023-04-28T01:10:18;95046.50;;;8.80;45.18
62697;BME280;48761;42.680;23.312;2023-04-28T01:12:44;95050.88;;;8.81;45.38
62697;BME280;48761;42.680;23.312;2023-04-28T01:15:15;95079.41;;;9.07;45.00
62697;BME280;48761;42.680;23.312;2023-04-28T01:17:41;95033.63;;;8.74;44.98
62697;BME280;48761;42.680;23.312;2023-04-28T01:20:08;95079.66;;;8.88;45.63
62697;BME280;48761;42.680;23.312;2023-04-28T01:22:34;95080.44;;;8.90;45.29
62697;BME280;48761;42.680;23.312;2023-04-28T01:25:00;95079.88;;;8.84;45.88
62697;BME280;48761;42.680;23.312;2023-04-28T01:27:26;95054.59;;;8.62;45.83
62697;BME280;48761;42.680;23.312;2023-04-28T01:29:52;95088.75;;;8.83;45.53
62697;BME280;48761;42.680;23.312;2023-04-28T01:32:18;95054.59;;;8.62;45.19
62697;BME280;48761;42.680;23.312;2023-04-28T01:34:43;95046.75;;;8.61;45.45
62697;BME280;48761;42.680;23.312;2023-04-28T01:37:09;95062.78;;;8.74;45.30
62697;BME280;48761;42.680;23.312;2023-04-28T01:39:35;95081.72;;;8.82;45.57
62697;BME280;48761;42.680;23.312;2023-04-28T01:42:01;95055.03;;;8.71;45.43
62697;BME280;48761;42.680;23.312;2023-04-28T01:44:27;95043.66;;;8.69;45.23
62697;BME280;48761;42.680;23.312;2023-04-28T01:46:53;95051.03;;;8.63;45.53
62697;BME280;48761;42.680;23.312;2023-04-28T01:49:19;95054.38;;;8.51;45.65
62697;BME280;48761;42.680;23.312;2023-04-28T01:51:45;95075.47;;;8.69;45.25
62697;BME280;48761;42.680;23.312;2023-04-28T01:54:11;95084.06;;;8.72;45.24
62697;BME280;48761;42.680;23.312;2023-04-28T01:56:37;95075.28;;;8.72;45.24
62697;BME280;48761;42.680;23.312;2023-04-28T01:59:03;95082.44;;;8.70;45.20
62697;BME280;48761;42.680;23.312;2023-04-28T02:01:29;95075.16;;;8.43;45.41
62697;BME280;48761;42.680;23.312;2023-04-28T02:03:55;95090.47;;;8.37;45.77
62697;BME280;48761;42.680;23.312;2023-04-28T02:06:20;95081.53;;;8.24;46.00
62697;BME280;48761;42.680;23.312;2023-04-28T02:08:46;95077.97;;;7.92;46.94
62697;BME280;48761;42.680;23.312;2023-04-28T02:11:12;95037.75;;;7.69;46.60
62697;BME280;48761;42.680;23.312;2023-04-28T02:13:38;95044.66;;;7.88;46.38
62697;BME280;48761;42.680;23.312;2023-04-28T02:16:04;95097.09;;;8.14;46.42
62697;BME280;48761;42.680;23.312;2023-04-28T02:18:30;95062.06;;;7.92;46.68
62697;BME280;48761;42.680;23.312;2023-04-28T02:20:56;95039.88;;;7.62;46.94
62697;BME280;48761;42.680;23.312;2023-04-28T02:23:22;95090.50;;;8.05;46.46
62697;BME280;48761;42.680;23.312;2023-04-28T02:25:48;95076.94;;;7.95;46.57
62697;BME280;48761;42.680;23.312;2023-04-28T02:28:14;95080.50;;;8.10;46.41
62697;BME280;48761;42.680;23.312;2023-04-28T02:30:40;95098.25;;;8.24;46.33
62697;BME280;48761;42.680;23.312;2023-04-28T02:33:06;95066.34;;;8.11;46.31
62697;BME280;48761;42.680;23.312;2023-04-28T02:35:32;95101.22;;;8.34;46.69
62697;BME280;48761;42.680;23.312;2023-04-28T02:37:58;95106.34;;;8.37;46.18
62697;BME280;48761;42.680;23.312;2023-04-28T02:40:24;95088.34;;;8.28;46.04
62697;BME280;48761;42.680;23.312;2023-04-28T02:42:49;95105.31;;;8.40;46.18
62697;BME280;48761;42.680;23.312;2023-04-28T02:45:15;95107.69;;;8.45;46.15
62697;BME280;48761;42.680;23.312;2023-04-28T02:47:41;95099.28;;;8.22;46.66
62697;BME280;48761;42.680;23.312;2023-04-28T02:50:07;95057.16;;;7.86;46.76
62697;BME280;48761;42.680;23.312;2023-04-28T02:52:33;95104.78;;;8.18;46.67
62697;BME280;48761;42.680;23.312;2023-04-28T02:54:59;95104.28;;;7.95;47.46
62697;BME280;48761;42.680;23.312;2023-04-28T02:57:25;95100.34;;;8.03;47.16
62697;BME280;48761;42.680;23.312;2023-04-28T02:59:51;95109.97;;;7.88;47.49
62697;BME280;48761;42.680;23.312;2023-04-28T03:02:17;95104.59;;;8.05;47.01
62697;BME280;48761;42.680;23.312;2023-04-28T03:04:43;95122.78;;;8.12;46.96
62697;BME280;48761;42.680;23.312;2023-04-28T03:07:09;95120.81;;;8.15;47.13
62697;BME280;48761;42.680;23.312;2023-04-28T03:09:35;95121.16;;;8.09;46.77
62697;BME280;48761;42.680;23.312;2023-04-28T03:12:01;95124.59;;;8.11;46.86
62697;BME280;48761;42.680;23.312;2023-04-28T03:14:27;95113.66;;;8.01;46.68
62697;BME280;48761;42.680;23.312;2023-04-28T03:16:53;95089.38;;;7.77;47.35
62697;BME280;48761;42.680;23.312;2023-04-28T03:19:19;95125.69;;;8.07;46.93
62697;BME280;48761;42.680;23.312;2023-04-28T03:21:44;95114.84;;;7.79;46.63
62697;BME280;48761;42.680;23.312;2023-04-28T03:24:11;95126.44;;;8.09;46.95
62697;BME280;48761;42.680;23.312;2023-04-28T03:26:36;95124.81;;;7.58;47.59
62697;BME280;48761;42.680;23.312;2023-04-28T03:29:02;95138.91;;;7.74;47.56
62697;BME280;48761;42.680;23.312;2023-04-28T03:31:28;95118.19;;;7.83;46.70
62697;BME280;48761;42.680;23.312;2023-04-28T03:33:54;95145.56;;;7.82;46.94
62697;BME280;48761;42.680;23.312;2023-04-28T03:36:20;95157.22;;;7.95;47.01
62697;BME280;48761;42.680;23.312;2023-04-28T03:38:46;95157.53;;;7.89;46.83
62697;BME280;48761;42.680;23.312;2023-04-28T03:41:12;95150.09;;;7.80;46.87
62697;BME280;48761;42.680;23.312;2023-04-28T03:43:38;95125.53;;;7.78;46.86
62697;BME280;48761;42.680;23.312;2023-04-28T03:46:04;95168.03;;;7.74;47.26
62697;BME280;48761;42.680;23.312;2023-04-28T03:48:29;95164.09;;;7.82;46.86
62697;BME280;48761;42.680;23.312;2023-04-28T03:50:55;95168.72;;;7.78;46.84
62697;BME280;48761;42.680;23.312;2023-04-28T03:53:21;95166.06;;;7.78;47.02
62697;BME280;48761;42.680;23.312;2023-04-28T03:55:47;95173.34;;;7.57;47.44
62697;BME280;48761;42.680;23.312;2023-04-28T03:58:13;95172.44;;;7.58;47.45
62697;BME280;48761;42.680;23.312;2023-04-28T04:00:39;95172.88;;;7.66;47.37
62697;BME280;48761;42.680;23.312;2023-04-28T04:03:05;95182.72;;;7.96;47.22
62697;BME280;48761;42.680;23.312;2023-04-28T04:05:31;95194.13;;;8.15;46.52
62697;BME280;48761;42.680;23.312;2023-04-28T04:07:57;95187.97;;;8.47;46.56
62697;BME280;48761;42.680;23.312;2023-04-28T04:10:23;95181.09;;;8.91;46.02
62697;BME280;48761;42.680;23.312;2023-04-28T04:12:49;95195.56;;;9.16;44.93
62697;BME280;48761;42.680;23.312;2023-04-28T04:15:15;95183.66;;;9.53;44.44
62697;BME280;48761;42.680;23.312;2023-04-28T04:17:42;95193.00;;;9.90;43.87
62697;BME280;48761;42.680;23.312;2023-04-28T04:20:09;95178.91;;;10.17;43.40
62697;BME280;48761;42.680;23.312;2023-04-28T04:22:36;95182.00;;;10.53;42.29
62697;BME280;48761;42.680;23.312;2023-04-28T04:25:02;95178.44;;;10.95;41.18
62697;BME280;48761;42.680;23.312;2023-04-28T04:27:28;95202.78;;;11.29;40.66
62697;BME280;48761;42.680;23.312;2023-04-28T04:29:54;95171.63;;;10.91;40.53
62697;BME280;48761;42.680;23.312;2023-04-28T04:32:20;95194.06;;;11.27;40.25
62697;BME280;48761;42.680;23.312;2023-04-28T04:34:46;95213.47;;;11.42;40.49
62697;BME280;48761;42.680;23.312;2023-04-28T04:37:32;95190.97;;;11.99;39.17
62697;BME280;48761;42.680;23.312;2023-04-28T04:39:58;95212.41;;;11.45;39.89
62697;BME280;48761;42.680;23.312;2023-04-28T04:42:24;95183.00;;;11.86;39.01
62697;BME280;48761;42.680;23.312;2023-04-28T04:44:50;95210.56;;;12.11;38.36
62697;BME280;48761;42.680;23.312;2023-04-28T04:47:16;95214.97;;;12.25;38.21
62697;BME280;48761;42.680;23.312;2023-04-28T04:49:42;95216.88;;;12.74;37.61
62697;BME280;48761;42.680;23.312;2023-04-28T04:52:08;95222.66;;;12.92;36.88
62697;BME280;48761;42.680;23.312;2023-04-28T04:54:34;95208.13;;;12.96;36.47
62697;BME280;48761;42.680;23.312;2023-04-28T04:57:00;95221.34;;;12.98;36.89
62697;BME280;48761;42.680;23.312;2023-04-28T04:59:25;95211.69;;;13.08;36.69
62697;BME280;48761;42.680;23.312;2023-04-28T05:01:51;95228.81;;;13.42;35.53
62697;BME280;48761;42.680;23.312;2023-04-28T05:04:17;95223.22;;;13.45;35.87
62697;BME280;48761;42.680;23.312;2023-04-28T05:06:43;95209.50;;;13.86;35.44
62697;BME280;48761;42.680;23.312;2023-04-28T05:09:09;95224.41;;;13.29;35.69
62697;BME280;48761;42.680;23.312;2023-04-28T05:11:35;95235.41;;;13.49;35.40
62697;BME280;48761;42.680;23.312;2023-04-28T05:14:01;95233.69;;;13.96;34.99
62697;BME280;48761;42.680;23.312;2023-04-28T05:16:27;95239.66;;;14.11;35.40
62697;BME280;48761;42.680;23.312;2023-04-28T05:18:53;95204.44;;;14.06;35.02
62697;BME280;48761;42.680;23.312;2023-04-28T05:21:19;95238.91;;;14.89;34.05
62697;BME280;48761;42.680;23.312;2023-04-28T05:23:45;95230.91;;;14.55;33.84
62697;BME280;48761;42.680;23.312;2023-04-28T05:26:12;95232.56;;;14.79;34.20
62697;BME280;48761;42.680;23.312;2023-04-28T05:28:39;95226.81;;;14.51;33.74
62697;BME280;48761;42.680;23.312;2023-04-28T05:31:05;95239.31;;;14.27;34.66
62697;BME280;48761;42.680;23.312;2023-04-28T05:33:31;95235.00;;;13.67;35.43
62697;BME280;48761;42.680;23.312;2023-04-28T05:35:57;95236.94;;;13.76;34.83
62697;BME280;48761;42.680;23.312;2023-04-28T05:38:24;95229.81;;;14.57;34.57
62697;BME280;48761;42.680;23.312;2023-04-28T05:40:50;95225.47;;;14.45;34.35
62697;BME280;48761;42.680;23.312;2023-04-28T05:43:16;95224.13;;;14.51;34.28
62697;BME280;48761;42.680;23.312;2023-04-28T05:45:42;95232.88;;;14.30;34.53
62697;BME280;48761;42.680;23.312;2023-04-28T05:48:08;95226.78;;;14.62;34.68
62697;BME280;48761;42.680;23.312;2023-04-28T05:50:34;95226.78;;;14.62;33.84
62697;BME280;48761;42.680;23.312;2023-04-28T05:53:00;95217.44;;;15.12;33.56
62697;BME280;48761;42.680;23.312;2023-04-28T05:55:26;95242.34;;;14.34;33.59
62697;BME280;48761;42.680;23.312;2023-04-28T05:57:52;95234.06;;;14.60;33.46
62697;BME280;48761;42.680;23.312;2023-04-28T06:00:18;95229.69;;;14.71;33.30
62697;BME280;48761;42.680;23.312;2023-04-28T06:02:44;95239.91;;;14.54;33.06
62697;BME280;48761;42.680;23.312;2023-04-28T06:05:10;95243.09;;;15.15;33.63
62697;BME280;48761;42.680;23.312;2023-04-28T06:07:36;95234.66;;;14.98;33.01
62697;BME280;48761;42.680;23.312;2023-04-28T06:10:02;95249.41;;;15.58;32.09
62697;BME280;48761;42.680;23.312;2023-04-28T06:12:28;95218.97;;;14.94;32.93
62697;BME280;48761;42.680;23.312;2023-04-28T06:14:54;95225.59;;;15.44;32.82
62697;BME280;48761;42.680;23.312;2023-04-28T06:17:20;95238.56;;;15.27;32.19
62697;BME280;48761;42.680;23.312;2023-04-28T06:19:46;95232.41;;;15.91;32.44
62697;BME280;48761;42.680;23.312;2023-04-28T06:22:12;95218.28;;;15.89;31.65
62697;BME280;48761;42.680;23.312;2023-04-28T06:24:38;95233.13;;;15.93;31.17
62697;BME280;48761;42.680;23.312;2023-04-28T06:27:04;95240.81;;;16.29;31.33
62697;BME280;48761;42.680;23.312;2023-04-28T06:29:30;95248.22;;;15.94;31.72
62697;BME280;48761;42.680;23.312;2023-04-28T06:31:56;95239.97;;;16.29;31.05
62697;BME280;48761;42.680;23.312;2023-04-28T06:34:25;95241.28;;;16.13;31.44
62697;BME280;48761;42.680;23.312;2023-04-28T06:36:51;95235.31;;;16.62;31.05
62697;BME280;48761;42.680;23.312;2023-04-28T06:39:17;95233.25;;;15.16;32.23
62697;BME280;48761;42.680;23.312;2023-04-28T06:41:42;95234.00;;;15.72;31.80
62697;BME280;48761;42.680;23.312;2023-04-28T06:44:08;95224.31;;;14.94;32.78
62697;BME280;48761;42.680;23.312;2023-04-28T06:46:35;95226.16;;;16.33;31.37
62697;BME280;48761;42.680;23.312;2023-04-28T06:49:01;95201.38;;;15.67;31.43
62697;BME280;48761;42.680;23.312;2023-04-28T06:51:27;95207.78;;;16.29;31.24
62697;BME280;48761;42.680;23.312;2023-04-28T06:53:53;95232.84;;;16.90;30.83
62697;BME280;48761;42.680;23.312;2023-04-28T06:56:19;95217.94;;;17.18;30.14
62697;BME280;48761;42.680;23.312;2023-04-28T06:58:45;95231.69;;;16.83;29.28
62697;BME280;48761;42.680;23.312;2023-04-28T07:01:11;95217.56;;;15.87;30.33
62697;BME280;48761;42.680;23.312;2023-04-28T07:03:37;95225.66;;;15.75;31.48
62697;BME280;48761;42.680;23.312;2023-04-28T07:06:03;95233.25;;;15.70;30.42
62697;BME280;48761;42.680;23.312;2023-04-28T07:08:29;95233.81;;;15.52;31.11
62697;BME280;48761;42.680;23.312;2023-04-28T07:10:55;95227.56;;;15.63;31.30
62697;BME280;48761;42.680;23.312;2023-04-28T07:13:20;95224.81;;;15.96;30.49
62697;BME280;48761;42.680;23.312;2023-04-28T07:15:46;95226.41;;;17.23;29.44
62697;BME280;48761;42.680;23.312;2023-04-28T07:18:12;95228.97;;;17.34;29.21
62697;BME280;48761;42.680;23.312;2023-04-28T07:20:38;95225.28;;;17.35;29.05
62697;BME280;48761;42.680;23.312;2023-04-28T07:23:04;95221.63;;;18.34;28.14
62697;BME280;48761;42.680;23.312;2023-04-28T07:25:30;95225.75;;;18.19;27.97
62697;BME280;48761;42.680;23.312;2023-04-28T07:27:56;95202.91;;;17.65;28.51
62697;BME280;48761;42.680;23.312;2023-04-28T07:30:22;95216.66;;;17.22;29.08
62697;BME280;48761;42.680;23.312;2023-04-28T07:32:48;95221.41;;;16.88;28.86
62697;BME280;48761;42.680;23.312;2023-04-28T07:35:14;95220.25;;;15.87;30.53
62697;BME280;48761;42.680;23.312;2023-04-28T07:37:40;95215.19;;;16.98;30.05
62697;BME280;48761;42.680;23.312;2023-04-28T07:40:06;95212.53;;;17.67;28.76
62697;BME280;48761;42.680;23.312;2023-04-28T07:42:32;95223.28;;;17.97;28.75
62697;BME280;48761;42.680;23.312;2023-04-28T07:44:58;95223.28;;;17.77;28.16
62697;BME280;48761;42.680;23.312;2023-04-28T07:47:24;95223.88;;;17.31;28.76
62697;BME280;48761;42.680;23.312;2023-04-28T07:49:50;95214.97;;;18.29;27.85
62697;BME280;48761;42.680;23.312;2023-04-28T07:52:16;95222.03;;;17.62;28.30
62697;BME280;48761;42.680;23.312;2023-04-28T07:54:42;95208.25;;;16.44;29.66
62697;BME280;48761;42.680;23.312;2023-04-28T07:57:07;95203.75;;;16.44;29.72
62697;BME280;48761;42.680;23.312;2023-04-28T07:59:34;95207.19;;;16.15;30.55
62697;BME280;48761;42.680;23.312;2023-04-28T08:02:00;95213.41;;;17.28;28.68
62697;BME280;48761;42.680;23.312;2023-04-28T08:04:26;95177.97;;;17.92;28.63
62697;BME280;48761;42.680;23.312;2023-04-28T08:09:31;95198.50;;;18.98;26.70
62697;BME280;48761;42.680;23.312;2023-04-28T08:12:06;95164.78;;;18.47;26.24
62697;BME280;48761;42.680;23.312;2023-04-28T08:14:33;95174.13;;;18.43;26.02
62697;BME280;48761;42.680;23.312;2023-04-28T08:16:59;95204.69;;;18.52;25.95
62697;BME280;48761;42.680;23.312;2023-04-28T08:19:25;95214.50;;;19.00;25.87
62697;BME280;48761;42.680;23.312;2023-04-28T08:21:51;95211.28;;;19.14;26.05
62697;BME280;48761;42.680;23.312;2023-04-28T08:24:17;95215.56;;;19.35;25.84
62697;BME280;48761;42.680;23.312;2023-04-28T08:26:43;95216.50;;;19.26;26.01
62697;BME280;48761;42.680;23.312;2023-04-28T08:29:09;95192.03;;;19.09;25.81
62697;BME280;48761;42.680;23.312;2023-04-28T08:31:35;95162.59;;;17.85;27.28
62697;BME280;48761;42.680;23.312;2023-04-28T08:34:03;95154.06;;;18.37;26.15
62697;BME280;48761;42.680;23.312;2023-04-28T08:36:29;95162.22;;;18.46;26.42
62697;BME280;48761;42.680;23.312;2023-04-28T08:38:55;95161.28;;;18.65;26.78
62697;BME280;48761;42.680;23.312;2023-04-28T08:41:21;95194.69;;;18.73;26.18
62697;BME280;48761;42.680;23.312;2023-04-28T08:43:47;95198.72;;;16.61;28.57
62697;BME280;48761;42.680;23.312;2023-04-28T08:46:15;95201.25;;;16.21;29.73
62697;BME280;48761;42.680;23.312;2023-04-28T08:48:43;95205.41;;;16.77;29.38
62697;BME280;48761;42.680;23.312;2023-04-28T08:51:14;95194.44;;;17.79;28.12
62697;BME280;48761;42.680;23.312;2023-04-28T08:53:43;95172.94;;;17.79;27.45
62697;BME280;48761;42.680;23.312;2023-04-28T08:56:10;95200.50;;;17.81;27.68
62697;BME280;48761;42.680;23.312;2023-04-28T08:58:38;95185.97;;;17.54;27.79
62697;BME280;48761;42.680;23.312;2023-04-28T09:01:04;95200.13;;;17.36;28.09
62697;BME280;48761;42.680;23.312;2023-04-28T09:03:33;95191.22;;;17.26;28.52
62697;BME280;48761;42.680;23.312;2023-04-28T09:06:02;95178.16;;;16.91;28.47
62697;BME280;48761;42.680;23.312;2023-04-28T09:08:28;95161.41;;;15.85;29.25
62697;BME280;48761;42.680;23.312;2023-04-28T09:11:10;95182.84;;;16.07;29.53
62697;BME280;48761;42.680;23.312;2023-04-28T09:13:36;95175.06;;;16.35;29.36
62697;BME280;48761;42.680;23.312;2023-04-28T09:16:02;95172.94;;;17.50;28.58
62697;BME280;48761;42.680;23.312;2023-04-28T09:18:29;95172.63;;;17.83;27.49
62697;BME280;48761;42.680;23.312;2023-04-28T09:21:03;95169.75;;;18.04;26.77
62697;BME280;48761;42.680;23.312;2023-04-28T09:23:29;95143.44;;;17.20;27.64
62697;BME280;48761;42.680;23.312;2023-04-28T09:26:03;95142.69;;;16.68;28.72
62697;BME280;48761;42.680;23.312;2023-04-28T09:28:34;95162.81;;;17.33;28.74
62697;BME280;48761;42.680;23.312;2023-04-28T09:31:00;95171.16;;;17.98;26.83
62697;BME280;48761;42.680;23.312;2023-04-28T09:33:27;95142.66;;;17.67;27.43
62697;BME280;48761;42.680;23.312;2023-04-28T09:35:53;95143.28;;;17.51;27.94
62697;BME280;48761;42.680;23.312;2023-04-28T09:38:21;95093.72;;;16.24;28.26
62697;BME280;48761;42.680;23.312;2023-04-28T09:43:30;95152.53;;;16.57;28.60
62697;BME280;48761;42.680;23.312;2023-04-28T09:45:58;95149.19;;;16.85;27.99
62697;BME280;48761;42.680;23.312;2023-04-28T09:48:37;95146.78;;;16.92;27.03
62697;BME280;48761;42.680;23.312;2023-04-28T09:51:05;95137.03;;;16.81;27.65
62697;BME280;48761;42.680;23.312;2023-04-28T09:53:31;95137.75;;;16.83;28.24
62697;BME280;48761;42.680;23.312;2023-04-28T09:56:00;95112.75;;;16.92;28.29
62697;BME280;48761;42.680;23.312;2023-04-28T09:58:27;95141.56;;;17.10;27.91
62697;BME280;48761;42.680;23.312;2023-04-28T10:00:58;95124.97;;;17.65;27.85
62697;BME280;48761;42.680;23.312;2023-04-28T10:03:27;95083.44;;;17.59;27.40
62697;BME280;48761;42.680;23.312;2023-04-28T10:05:55;95125.75;;;17.17;27.86
62697;BME280;48761;42.680;23.312;2023-04-28T10:08:23;95099.75;;;17.18;27.16
62697;BME280;48761;42.680;23.312;2023-04-28T10:10:50;95123.75;;;17.29;27.24
62697;BME280;48761;42.680;23.312;2023-04-28T10:13:16;95103.97;;;17.10;27.58
62697;BME280;48761;42.680;23.312;2023-04-28T10:15:42;95085.03;;;17.42;26.70
62697;BME280;48761;42.680;23.312;2023-04-28T10:18:10;95107.53;;;17.89;26.96
62697;BME280;48761;42.680;23.312;2023-04-28T10:20:37;95109.94;;;18.30;26.71
62697;BME280;48761;42.680;23.312;2023-04-28T10:23:24;95117.22;;;18.38;26.12
62697;BME280;48761;42.680;23.312;2023-04-28T10:25:56;95111.28;;;17.58;26.24
62697;BME280;48761;42.680;23.312;2023-04-28T10:28:22;95100.59;;;17.08;27.24
62697;BME280;48761;42.680;23.312;2023-04-28T10:31:07;95104.53;;;16.84;27.18
62697;BME280;48761;42.680;23.312;2023-04-28T10:33:33;95099.13;;;16.54;27.29
62697;BME280;48761;42.680;23.312;2023-04-28T10:35:59;95106.66;;;16.80;27.21
62697;BME280;48761;42.680;23.312;2023-04-28T10:38:25;95099.47;;;16.81;27.06
62697;BME280;48761;42.680;23.312;2023-04-28T10:40:52;95104.97;;;17.29;27.15
62697;BME280;48761;42.680;23.312;2023-04-28T10:48:51;95055.91;;;17.27;26.72
62697;BME280;48761;42.680;23.312;2023-04-28T10:58:38;95069.38;;;17.65;26.21
62697;BME280;48761;42.680;23.312;2023-04-28T11:04:06;95049.16;;;17.23;27.06
62697;BME280;48761;42.680;23.312;2023-04-28T11:14:31;95061.81;;;17.41;27.69
62697;BME280;48761;42.680;23.312;2023-04-28T11:17:02;95058.16;;;17.32;25.88
62697;BME280;48761;42.680;23.312;2023-04-28T11:22:00;95019.09;;;17.47;25.70
62697;BME280;48761;42.680;23.312;2023-04-28T11:24:29;95019.56;;;17.71;25.09
62697;BME280;48761;42.680;23.312;2023-04-28T11:26:59;95043.78;;;17.71;25.85
62697;BME280;48761;42.680;23.312;2023-04-28T11:29:34;95008.00;;;17.61;25.62
62697;BME280;48761;42.680;23.312;2023-04-28T11:32:01;95021.00;;;17.17;26.01
62697;BME280;48761;42.680;23.312;2023-04-28T11:34:28;94971.75;;;16.49;26.70
62697;BME280;48761;42.680;23.312;2023-04-28T11:36:54;95001.66;;;16.84;27.36
62697;BME280;48761;42.680;23.312;2023-04-28T11:39:30;95022.22;;;17.43;26.18
62697;BME280;48761;42.680;23.312;2023-04-28T11:41:58;95017.88;;;17.70;25.12
62697;BME280;48761;42.680;23.312;2023-04-28T11:44:27;95023.41;;;17.30;26.44
62697;BME280;48761;42.680;23.312;2023-04-28T11:46:57;95014.66;;;17.08;26.70
62697;BME280;48761;42.680;23.312;2023-04-28T11:49:26;95004.50;;;16.92;27.03
62697;BME280;48761;42.680;23.312;2023-04-28T11:51:53;95024.00;;;16.94;27.67
62697;BME280;48761;42.680;23.312;2023-04-28T11:54:27;95003.63;;;17.11;27.54
62697;BME280;48761;42.680;23.312;2023-04-28T11:56:54;94966.31;;;17.08;27.04
62697;BME280;48761;42.680;23.312;2023-04-28T11:59:28;95018.47;;;17.64;26.22
62697;BME280;48761;42.680;23.312;2023-04-28T12:01:57;95024.47;;;17.47;26.25
62697;BME280;48761;42.680;23.312;2023-04-28T12:04:40;95012.81;;;16.99;26.50
62697;BME280;48761;42.680;23.312;2023-04-28T12:07:17;95015.97;;;16.64;27.01
62697;BME280;48761;42.680;23.312;2023-04-28T12:09:48;94992.50;;;16.66;27.62
62697;BME280;48761;42.680;23.312;2023-04-28T12:12:34;94984.16;;;16.89;28.11
62697;BME280;48761;42.680;23.312;2023-04-28T12:15:02;94979.88;;;17.07;27.63
62697;BME280;48761;42.680;23.312;2023-04-28T12:17:32;94971.41;;;15.92;28.50
62697;BME280;48761;42.680;23.312;2023-04-28T12:20:03;94930.13;;;16.24;28.54
62697;BME280;48761;42.680;23.312;2023-04-28T12:22:30;94970.59;;;16.91;27.96
62697;BME280;48761;42.680;23.312;2023-04-28T12:25:03;94952.78;;;16.90;27.98
62697;BME280;48761;42.680;23.312;2023-04-28T12:27:30;94955.41;;;17.20;28.45
62697;BME280;48761;42.680;23.312;2023-04-28T12:29:56;94983.31;;;17.47;27.92
62697;BME280;48761;42.680;23.312;2023-04-28T12:32:39;94984.09;;;17.09;27.27
62697;BME280;48761;42.680;23.312;2023-04-28T12:35:06;94957.38;;;16.10;28.30
62697;BME280;48761;42.680;23.312;2023-04-28T12:37:32;94966.38;;;16.58;27.76
62697;BME280;48761;42.680;23.312;2023-04-28T12:39:58;94976.78;;;16.91;28.04
62697;BME280;48761;42.680;23.312;2023-04-28T12:42:27;94968.28;;;17.26;27.30
62697;BME280;48761;42.680;23.312;2023-04-28T12:44:53;94968.09;;;17.66;36.70
62697;BME280;48761;42.680;23.312;2023-04-28T12:47:19;94963.56;;;18.13;36.28
62697;BME280;48761;42.680;23.312;2023-04-28T12:49:45;94962.13;;;18.19;33.60
62697;BME280;48761;42.680;23.312;2023-04-28T12:52:11;94952.09;;;18.39;30.06
62697;BME280;48761;42.680;23.312;2023-04-28T12:54:37;94956.97;;;18.07;30.80
62697;BME280;48761;42.680;23.312;2023-04-28T12:57:05;94958.75;;;17.70;27.93
62697;BME280;48761;42.680;23.312;2023-04-28T12:59:31;94947.88;;;17.33;27.87
62697;BME280;48761;42.680;23.312;2023-04-28T13:01:57;94938.53;;;17.38;27.55
62697;BME280;48761;42.680;23.312;2023-04-28T13:04:23;94938.63;;;17.18;28.61
62697;BME280;48761;42.680;23.312;2023-04-28T13:06:52;94884.09;;;16.97;27.70
62697;BME280;48761;42.680;23.312;2023-04-28T13:09:18;94936.13;;;17.34;27.73
62697;BME280;48761;42.680;23.312;2023-04-28T13:11:45;94930.91;;;17.33;27.99
62697;BME280;48761;42.680;23.312;2023-04-28T13:14:11;94916.56;;;17.24;27.71
62697;BME280;48761;42.680;23.312;2023-04-28T13:16:38;94902.75;;;17.65;28.00
62697;BME280;48761;42.680;23.312;2023-04-28T13:19:04;94923.16;;;18.04;27.05
62697;BME280;48761;42.680;23.312;2023-04-28T13:21:30;94883.72;;;17.58;27.00
62697;BME280;48761;42.680;23.312;2023-04-28T13:23:56;94937.22;;;17.70;27.53